Item Display Status Serial CT Sensor

Mooring Depth: 1 m

 

Deployed Sensor

  • Serial Number: 13031
  • NDBC Property Number: 39426
  • Start Date: 12/6/2018 (13:24:51 Z)
  • End Date: Currently Active
Water Temperature [°C]     6 entries per hour
Showing data from 11/15/2019 (02:00:00 Z) to 11/14/2019 (00:00:01 Z)
Previous Next [ Day | 3-Days | 7-Days ]
First Last
Prev [ Day | 3-Days | 7-Days ] Next
First Last

Start Time:     :
End Time:     :     
Time (in GMT) :00 :50 :40 :30 :20 :10
Previous Next [ Day | 3-Days | 7-Days ]
First Last
Prev [ Day | 3-Days | 7-Days ] Next
First Last


123 => good data
MM => data is determined as missing
-- => data not received/configured
Back to Top Back to Top
11/15/2019 02:00 to 1:10 27.467 27.474 27.487 27.481 27.500 27.493
11/15/2019 01:00 to 0:10 27.485 27.490 27.496 27.497 27.496 27.504
11/15/2019 00:00 to 23:10 27.507 27.511 27.506 27.514 27.520 27.513
11/14/2019 23:00 to 22:10 27.513 27.530 27.526 27.520 27.520 27.516
11/14/2019 22:00 to 21:10 27.515 27.557 27.574 27.571 27.565 27.561
11/14/2019 21:00 to 20:10 27.550 27.540 27.524 27.526 27.521 27.510
11/14/2019 20:00 to 19:10 27.514 27.522 27.535 27.530 27.526 27.541
11/14/2019 19:00 to 18:10 27.556 27.560 27.555 27.559 27.556 27.544
11/14/2019 18:00 to 17:10 27.540 27.537 27.536 27.537 27.536 27.529
11/14/2019 17:00 to 16:10 27.529 27.530 27.528 27.520 27.522 27.524
11/14/2019 16:00 to 15:10 27.523 27.521 27.516 27.519 27.521 27.525
11/14/2019 15:00 to 14:10 27.529 27.532 27.534 27.527 27.533 27.527
11/14/2019 14:00 to 13:10 27.527 27.537 27.539 27.535 27.542 27.541
11/14/2019 13:00 to 12:10 27.551 27.559 27.557 27.556 27.567 27.575
11/14/2019 12:00 to 11:10 27.572 27.573 27.572 27.575 27.575 27.578
11/14/2019 11:00 to 10:10 27.597 27.604 27.599 27.594 27.599 27.595
11/14/2019 10:00 to 9:10 27.598 27.606 27.598 27.598 27.593 27.596
11/14/2019 09:00 to 8:10 27.594 27.592 27.604 27.603 27.601 27.608
11/14/2019 08:00 to 7:10 27.612 27.614 27.638 27.638 27.650 27.650
11/14/2019 07:00 to 6:10 27.652 27.664 27.659 27.677 27.692 27.692
11/14/2019 06:00 to 5:10 27.682 27.690 27.684 27.679 27.674 27.679
11/14/2019 05:00 to 4:10 27.674 27.672 27.676 27.671 27.664 27.665
11/14/2019 04:00 to 3:10 27.660 27.669 27.711 27.711 27.704 27.716
11/14/2019 03:00 to 2:10 27.726 27.714 27.711 27.707 27.704 27.707
11/14/2019 02:00 to 1:10 27.703 27.705 27.704 27.700 27.697 27.688
11/14/2019 01:00 to 0:10 27.710 27.698 27.715 27.710 27.717 27.716

 

 

 

Conductivity [S/m]     6 entries per hour
Showing data from 11/15/2019 (02:00:00 Z) to 11/14/2019 (00:00:01 Z)
Previous Next [ Day | 3-Days | 7-Days ]
First Last
Prev [ Day | 3-Days | 7-Days ] Next
First Last

Start Time:     :
End Time:     :     
Time (in GMT) :00 :50 :40 :30 :20 :10
Previous Next [ Day | 3-Days | 7-Days ]
First Last
Prev [ Day | 3-Days | 7-Days ] Next
First Last


123 => good data
MM => data is determined as missing
-- => data not received/configured
Back to Top Back to Top
11/15/2019 02:00 to 1:10 5.25831 5.25915 5.26106 5.25978 5.26264 5.26117
11/15/2019 01:00 to 0:10 5.25975 5.26012 5.26062 5.26024 5.25987 5.26022
11/15/2019 00:00 to 23:10 5.26005 5.25973 5.25955 5.26022 5.26085 5.26003
11/14/2019 23:00 to 22:10 5.26016 5.26343 5.26264 5.26245 5.26260 5.26260
11/14/2019 22:00 to 21:10 5.26380 5.27277 5.27905 5.27897 5.27828 5.27933
11/14/2019 21:00 to 20:10 5.27833 5.27700 5.27534 5.27654 5.27634 5.27528
11/14/2019 20:00 to 19:10 5.27750 5.28041 5.28312 5.28408 5.28417 5.28854
11/14/2019 19:00 to 18:10 5.29323 5.29664 5.29670 5.29781 5.29772 5.29671
11/14/2019 18:00 to 17:10 5.29660 5.29659 5.29666 5.29672 5.29637 5.29460
11/14/2019 17:00 to 16:10 5.29395 5.29476 5.29427 5.29246 5.29269 5.29339
11/14/2019 16:00 to 15:10 5.29361 5.29300 5.29236 5.29336 5.29347 5.29457
11/14/2019 15:00 to 14:10 5.29529 5.29587 5.29659 5.29519 5.29608 5.29547
11/14/2019 14:00 to 13:10 5.29550 5.29692 5.29624 5.29691 5.29723 5.29767
11/14/2019 13:00 to 12:10 5.29915 5.30056 5.30145 5.30160 5.30299 5.30423
11/14/2019 12:00 to 11:10 5.30383 5.30436 5.30419 5.30454 5.30501 5.30521
11/14/2019 11:00 to 10:10 5.30795 5.30998 5.30919 5.30810 5.30848 5.30798
11/14/2019 10:00 to 9:10 5.30780 5.30833 5.30632 5.30634 5.30565 5.30662
11/14/2019 09:00 to 8:10 5.30687 5.30604 5.30769 5.30794 5.30862 5.30956
11/14/2019 08:00 to 7:10 5.31027 5.31089 5.31592 5.31583 5.31698 5.31687
11/14/2019 07:00 to 6:10 5.31701 5.31812 5.31741 5.31850 5.32100 5.32036
11/14/2019 06:00 to 5:10 5.31827 5.31834 5.31692 5.31626 5.31476 5.31498
11/14/2019 05:00 to 4:10 5.31401 5.31332 5.31360 5.31280 5.31278 5.31342
11/14/2019 04:00 to 3:10 5.31239 5.31404 5.32212 5.32197 5.32086 5.32338
11/14/2019 03:00 to 2:10 5.32431 5.32309 5.32293 5.32251 5.32242 5.32298
11/14/2019 02:00 to 1:10 5.32223 5.32230 5.32271 5.32212 5.32204 5.32071
11/14/2019 01:00 to 0:10 5.32421 5.32257 5.32449 5.32398 5.32484 5.32466

 

 

 

Salinity [psu]     6 entries per hour
Showing data from 11/15/2019 (02:00:00 Z) to 11/14/2019 (00:00:01 Z)
Previous Next [ Day | 3-Days | 7-Days ]
First Last
Prev [ Day | 3-Days | 7-Days ] Next
First Last

Start Time:     :
End Time:     :     
Time (in GMT) :00 :50 :40 :30 :20 :10
Previous Next [ Day | 3-Days | 7-Days ]
First Last
Prev [ Day | 3-Days | 7-Days ] Next
First Last


123 => good data
MM => data is determined as missing
-- => data not received/configured
Back to Top Back to Top
11/15/2019 02:00 to 1:10 32.83 32.83 32.83 32.83 32.84 32.83
11/15/2019 01:00 to 0:10 32.83 32.83 32.82 32.82 32.82 32.82
11/15/2019 00:00 to 23:10 32.81 32.81 32.81 32.81 32.81 32.81
11/14/2019 23:00 to 22:10 32.81 32.82 32.82 32.82 32.82 32.82
11/14/2019 22:00 to 21:10 32.83 32.87 32.90 32.90 32.90 32.91
11/14/2019 21:00 to 20:10 32.91 32.91 32.91 32.92 32.92 32.92
11/14/2019 20:00 to 19:10 32.93 32.94 32.96 32.97 32.97 32.99
11/14/2019 19:00 to 18:10 33.01 33.03 33.04 33.04 33.04 33.04
11/14/2019 18:00 to 17:10 33.05 33.05 33.05 33.05 33.05 33.04
11/14/2019 17:00 to 16:10 33.03 33.04 33.04 33.03 33.03 33.03
11/14/2019 16:00 to 15:10 33.04 33.03 33.03 33.04 33.04 33.04
11/14/2019 15:00 to 14:10 33.04 33.05 33.05 33.05 33.05 33.05
11/14/2019 14:00 to 13:10 33.05 33.05 33.04 33.05 33.05 33.05
11/14/2019 13:00 to 12:10 33.06 33.06 33.07 33.07 33.07 33.07
11/14/2019 12:00 to 11:10 33.07 33.08 33.08 33.08 33.08 33.08
11/14/2019 11:00 to 10:10 33.09 33.09 33.09 33.09 33.09 33.09
11/14/2019 10:00 to 9:10 33.08 33.08 33.07 33.07 33.07 33.08
11/14/2019 09:00 to 8:10 33.08 33.08 33.08 33.08 33.09 33.09
11/14/2019 08:00 to 7:10 33.09 33.09 33.11 33.11 33.11 33.11
11/14/2019 07:00 to 6:10 33.11 33.11 33.11 33.10 33.11 33.11
11/14/2019 06:00 to 5:10 33.10 33.09 33.09 33.09 33.08 33.08
11/14/2019 05:00 to 4:10 33.07 33.07 33.07 33.07 33.07 33.08
11/14/2019 04:00 to 3:10 33.07 33.08 33.10 33.10 33.10 33.11
11/14/2019 03:00 to 2:10 33.11 33.11 33.11 33.11 33.11 33.11
11/14/2019 02:00 to 1:10 33.11 33.11 33.11 33.11 33.11 33.11
11/14/2019 01:00 to 0:10 33.12 33.12 33.12 33.12 33.12 33.12